EZY9170 LGSK-LOWW
Flight info
| Callsign | EZY9170 |
|---|---|
| Flight time | 1h 48m |
| Altitude | 38000 |
| Route | TSL UL617 MAKED DCT LONTA UL608 DOLEV DCT OBUTI OBUTI2W |
| Aircraft | A20N/M-SDE2E3FGHIRWXY/LB1 |
Departure
| Time | 2026-04-26 06:28 |
|---|---|
| Airport | Skiathos Island National Airport (LGSK) |
Arrival
| Time | 2026-04-26 08:16 |
|---|---|
| Airport | Vienna International Airport (LOWW) |
| Time | Latitude | Longitude | Altitude | Speed | Heading |
|---|---|---|---|---|---|
| 2026-04-26 05:59 | 39.17988 | 23.50278 | 39 ft | 0 kts | 289° |
| 2026-04-26 06:17 | 39.17986 | 23.50284 | 39 ft | 4 kts | 289° |
| 2026-04-26 06:17 | 39.17978 | 23.50316 | 37 ft | 3 kts | 289° |
| 2026-04-26 06:18 | 39.17969 | 23.50342 | 38 ft | 4 kts | 324° |
| 2026-04-26 06:18 | 39.17945 | 23.50349 | 39 ft | 4 kts | 11° |
| 2026-04-26 06:18 | 39.17921 | 23.50341 | 39 ft | 4 kts | 19° |
| 2026-04-26 06:18 | 39.17895 | 23.50330 | 35 ft | 4 kts | 19° |
| 2026-04-26 06:19 | 39.17886 | 23.50326 | 37 ft | 0 kts | 19° |
| 2026-04-26 06:22 | 39.17910 | 23.50342 | 40 ft | 7 kts | 39° |
| 2026-04-26 06:22 | 39.17914 | 23.50347 | 41 ft | 0 kts | 46° |
| 2026-04-26 06:24 | 39.17916 | 23.50350 | 41 ft | 2 kts | 47° |
| 2026-04-26 06:24 | 39.17931 | 23.50398 | 41 ft | 10 kts | 83° |
| 2026-04-26 06:24 | 39.17872 | 23.50439 | 40 ft | 14 kts | 196° |
| 2026-04-26 06:25 | 39.17763 | 23.50391 | 38 ft | 18 kts | 199° |
| 2026-04-26 06:25 | 39.17646 | 23.50340 | 41 ft | 18 kts | 198° |
| 2026-04-26 06:25 | 39.17519 | 23.50285 | 39 ft | 21 kts | 199° |
| 2026-04-26 06:25 | 39.17374 | 23.50219 | 34 ft | 24 kts | 198° |
| 2026-04-26 06:26 | 39.17194 | 23.50140 | 24 ft | 29 kts | 200° |
| 2026-04-26 06:26 | 39.17067 | 23.50090 | 16 ft | 11 kts | 176° |
| 2026-04-26 06:26 | 39.17025 | 23.50063 | 12 ft | 8 kts | 293° |
| 2026-04-26 06:26 | 39.17053 | 23.50065 | 16 ft | 1 kts | 38° |
| 2026-04-26 06:27 | 39.17071 | 23.50080 | 17 ft | 4 kts | 24° |
| 2026-04-26 06:27 | 39.17207 | 23.50142 | 23 ft | 57 kts | 18° |
| 2026-04-26 06:27 | 39.17837 | 23.50420 | 37 ft | 131 kts | 19° |
| 2026-04-26 06:27 | 39.18820 | 23.50850 | 466 ft | 152 kts | 17° |
| 2026-04-26 06:28 | 39.19854 | 23.51251 | 1210 ft | 161 kts | 14° |
| 2026-04-26 06:28 | 39.20957 | 23.51639 | 2015 ft | 169 kts | 12° |
| 2026-04-26 06:28 | 39.22136 | 23.52003 | 2672 ft | 179 kts | 8° |
| 2026-04-26 06:28 | 39.23439 | 23.52016 | 3185 ft | 197 kts | 355° |
| 2026-04-26 06:29 | 39.24878 | 23.51855 | 3661 ft | 216 kts | 354° |
| 2026-04-26 06:29 | 39.26450 | 23.51669 | 4136 ft | 238 kts | 355° |
| 2026-04-26 06:29 | 39.28180 | 23.51482 | 4659 ft | 259 kts | 355° |
| 2026-04-26 06:29 | 39.30011 | 23.51299 | 5019 ft | 266 kts | 355° |
| 2026-04-26 06:30 | 39.31875 | 23.51122 | 5775 ft | 269 kts | 355° |
| 2026-04-26 06:30 | 39.33742 | 23.50947 | 6798 ft | 270 kts | 355° |
| 2026-04-26 06:30 | 39.35637 | 23.50770 | 7668 ft | 275 kts | 355° |
| 2026-04-26 06:30 | 39.37565 | 23.50588 | 8549 ft | 280 kts | 355° |
| 2026-04-26 06:31 | 39.39518 | 23.50404 | 9447 ft | 284 kts | 355° |
| 2026-04-26 06:31 | 39.41495 | 23.50114 | 10296 ft | 288 kts | 348° |
| 2026-04-26 06:31 | 39.43399 | 23.49402 | 11132 ft | 290 kts | 339° |
| 2026-04-26 06:31 | 39.45335 | 23.48440 | 11617 ft | 309 kts | 339° |
| 2026-04-26 06:32 | 39.47423 | 23.47420 | 11877 ft | 332 kts | 339° |
| 2026-04-26 06:32 | 39.49636 | 23.46347 | 12408 ft | 344 kts | 339° |
| 2026-04-26 06:32 | 39.51889 | 23.45258 | 13243 ft | 347 kts | 339° |
| 2026-04-26 06:32 | 39.54159 | 23.44158 | 14018 ft | 351 kts | 339° |
| 2026-04-26 06:33 | 39.56461 | 23.43042 | 14756 ft | 353 kts | 339° |
| 2026-04-26 06:33 | 39.58771 | 23.41920 | 15482 ft | 356 kts | 339° |
| 2026-04-26 06:33 | 39.61106 | 23.40786 | 16210 ft | 359 kts | 339° |
| 2026-04-26 06:33 | 39.63455 | 23.39643 | 16912 ft | 362 kts | 339° |
| 2026-04-26 06:34 | 39.65829 | 23.38487 | 17613 ft | 366 kts | 339° |
| 2026-04-26 06:34 | 39.68221 | 23.37322 | 18321 ft | 369 kts | 339° |
| 2026-04-26 06:34 | 39.70636 | 23.36144 | 18912 ft | 372 kts | 340° |
| 2026-04-26 06:34 | 39.73070 | 23.34957 | 19519 ft | 375 kts | 340° |
| 2026-04-26 06:35 | 39.75518 | 23.33761 | 20117 ft | 378 kts | 340° |
| 2026-04-26 06:35 | 39.77956 | 23.32570 | 20706 ft | 380 kts | 340° |
| 2026-04-26 06:35 | 39.80448 | 23.31351 | 21292 ft | 384 kts | 340° |
| 2026-04-26 06:35 | 39.82956 | 23.30124 | 21872 ft | 387 kts | 340° |
| 2026-04-26 06:36 | 39.85487 | 23.28884 | 22453 ft | 390 kts | 340° |
| 2026-04-26 06:36 | 39.88037 | 23.27635 | 23021 ft | 393 kts | 340° |
| 2026-04-26 06:36 | 39.90603 | 23.26376 | 23582 ft | 396 kts | 340° |
| 2026-04-26 06:36 | 39.93188 | 23.25106 | 24062 ft | 398 kts | 340° |
| 2026-04-26 06:37 | 39.95788 | 23.23829 | 24540 ft | 401 kts | 340° |
| 2026-04-26 06:37 | 39.98405 | 23.22542 | 25001 ft | 403 kts | 340° |
| 2026-04-26 06:37 | 40.01046 | 23.21242 | 25464 ft | 406 kts | 339° |
| 2026-04-26 06:37 | 40.03699 | 23.19936 | 25905 ft | 408 kts | 339° |
| 2026-04-26 06:38 | 40.06330 | 23.18638 | 26340 ft | 411 kts | 339° |
| 2026-04-26 06:38 | 40.09016 | 23.17313 | 26777 ft | 413 kts | 339° |
| 2026-04-26 06:38 | 40.11712 | 23.15982 | 27187 ft | 415 kts | 339° |
| 2026-04-26 06:38 | 40.14422 | 23.14643 | 27600 ft | 418 kts | 339° |
| 2026-04-26 06:39 | 40.17159 | 23.13289 | 27996 ft | 420 kts | 339° |
| 2026-04-26 06:39 | 40.19899 | 23.11932 | 28397 ft | 422 kts | 339° |
| 2026-04-26 06:39 | 40.22654 | 23.10567 | 28757 ft | 424 kts | 339° |
| 2026-04-26 06:39 | 40.25411 | 23.09200 | 29125 ft | 427 kts | 339° |
| 2026-04-26 06:40 | 40.28211 | 23.07810 | 29478 ft | 429 kts | 339° |
| 2026-04-26 06:40 | 40.30970 | 23.06439 | 29820 ft | 431 kts | 339° |
| 2026-04-26 06:40 | 40.33779 | 23.05042 | 30172 ft | 433 kts | 339° |
| 2026-04-26 06:40 | 40.36605 | 23.03636 | 30480 ft | 435 kts | 339° |
| 2026-04-26 06:41 | 40.39435 | 23.02226 | 30793 ft | 436 kts | 339° |
| 2026-04-26 06:41 | 40.42278 | 23.00809 | 31110 ft | 438 kts | 339° |
| 2026-04-26 06:41 | 40.45121 | 22.99358 | 31494 ft | 437 kts | 336° |
| 2026-04-26 06:41 | 40.47845 | 22.97603 | 31899 ft | 436 kts | 331° |
| 2026-04-26 06:42 | 40.50522 | 22.95712 | 32322 ft | 435 kts | 332° |
| 2026-04-26 06:42 | 40.53189 | 22.93850 | 32728 ft | 433 kts | 332° |
| 2026-04-26 06:42 | 40.55851 | 22.91996 | 33116 ft | 432 kts | 332° |
| 2026-04-26 06:42 | 40.58503 | 22.90145 | 33503 ft | 431 kts | 332° |
| 2026-04-26 06:43 | 40.61119 | 22.88315 | 33875 ft | 429 kts | 332° |
| 2026-04-26 06:43 | 40.63751 | 22.86470 | 34204 ft | 429 kts | 332° |
| 2026-04-26 06:43 | 40.66386 | 22.84621 | 34489 ft | 428 kts | 332° |
| 2026-04-26 06:43 | 40.69012 | 22.82776 | 34772 ft | 427 kts | 332° |
| 2026-04-26 06:44 | 40.71635 | 22.80930 | 35051 ft | 427 kts | 332° |
| 2026-04-26 06:44 | 40.74255 | 22.79086 | 35307 ft | 427 kts | 332° |
| 2026-04-26 06:44 | 40.76875 | 22.77241 | 35558 ft | 426 kts | 331° |
| 2026-04-26 06:44 | 40.79486 | 22.75400 | 35821 ft | 425 kts | 331° |
| 2026-04-26 06:45 | 40.82099 | 22.73556 | 36064 ft | 425 kts | 331° |
| 2026-04-26 06:45 | 40.84705 | 22.71714 | 36308 ft | 425 kts | 331° |
| 2026-04-26 06:45 | 40.87315 | 22.69869 | 36547 ft | 424 kts | 331° |
| 2026-04-26 06:45 | 40.89915 | 22.68029 | 36762 ft | 424 kts | 331° |
| 2026-04-26 06:46 | 40.92516 | 22.66187 | 36978 ft | 424 kts | 331° |
| 2026-04-26 06:46 | 40.95109 | 22.64348 | 37188 ft | 423 kts | 331° |
| 2026-04-26 06:46 | 40.97670 | 22.62531 | 37401 ft | 423 kts | 331° |
| 2026-04-26 06:46 | 41.00264 | 22.60689 | 37595 ft | 422 kts | 331° |
| 2026-04-26 06:47 | 41.02853 | 22.58849 | 37783 ft | 422 kts | 331° |
| 2026-04-26 06:47 | 41.05440 | 22.57008 | 37961 ft | 422 kts | 331° |
| 2026-04-26 06:47 | 41.08037 | 22.55158 | 38061 ft | 422 kts | 331° |
| 2026-04-26 06:48 | 41.13102 | 22.51278 | 38065 ft | 419 kts | 324° |
| 2026-04-26 06:48 | 41.16950 | 22.47353 | 38065 ft | 420 kts | 320° |
| 2026-04-26 06:49 | 41.22249 | 22.41716 | 38068 ft | 419 kts | 321° |
| 2026-04-26 06:49 | 41.26063 | 22.37655 | 38069 ft | 419 kts | 320° |
| 2026-04-26 06:50 | 41.30578 | 22.32828 | 38078 ft | 419 kts | 320° |
| 2026-04-26 06:50 | 41.35125 | 22.27951 | 38087 ft | 420 kts | 320° |
| 2026-04-26 06:51 | 41.39661 | 22.23077 | 38078 ft | 418 kts | 320° |
| 2026-04-26 06:51 | 41.46441 | 22.15777 | 38083 ft | 417 kts | 320° |
| 2026-04-26 06:52 | 41.50958 | 22.10900 | 38084 ft | 417 kts | 320° |
| 2026-04-26 06:52 | 41.55471 | 22.06020 | 38088 ft | 417 kts | 320° |
| 2026-04-26 06:53 | 41.59956 | 22.01161 | 38095 ft | 417 kts | 320° |
| 2026-04-26 06:53 | 41.64468 | 21.96265 | 38101 ft | 418 kts | 320° |
| 2026-04-26 06:54 | 41.68981 | 21.91358 | 38098 ft | 418 kts | 320° |
| 2026-04-26 06:54 | 41.73491 | 21.86443 | 38098 ft | 418 kts | 319° |
| 2026-04-26 06:55 | 41.77996 | 21.81527 | 38094 ft | 418 kts | 319° |
| 2026-04-26 06:55 | 41.82470 | 21.76635 | 38091 ft | 417 kts | 319° |
| 2026-04-26 06:56 | 41.86970 | 21.71704 | 38087 ft | 417 kts | 319° |
| 2026-04-26 06:56 | 41.91467 | 21.66769 | 38082 ft | 417 kts | 319° |
| 2026-04-26 06:57 | 41.95950 | 21.61840 | 38073 ft | 415 kts | 319° |
| 2026-04-26 06:57 | 42.00416 | 21.56919 | 38075 ft | 415 kts | 319° |
| 2026-04-26 06:58 | 42.04875 | 21.51996 | 38076 ft | 414 kts | 319° |
| 2026-04-26 06:58 | 42.09301 | 21.47102 | 38083 ft | 413 kts | 319° |
| 2026-04-26 06:59 | 42.13740 | 21.42181 | 38085 ft | 413 kts | 318° |
| 2026-04-26 06:59 | 42.17812 | 21.36777 | 38086 ft | 410 kts | 309° |
| 2026-04-26 07:00 | 42.21496 | 21.30910 | 38094 ft | 410 kts | 309° |
| 2026-04-26 07:00 | 42.25200 | 21.25064 | 38102 ft | 410 kts | 309° |
| 2026-04-26 07:01 | 42.28900 | 21.19191 | 38104 ft | 409 kts | 309° |
| 2026-04-26 07:01 | 42.32560 | 21.13359 | 38101 ft | 409 kts | 309° |
| 2026-04-26 07:02 | 42.36233 | 21.07495 | 38105 ft | 408 kts | 309° |
| 2026-04-26 07:02 | 42.39902 | 21.01627 | 38102 ft | 408 kts | 309° |
| 2026-04-26 07:03 | 42.43563 | 20.95757 | 38102 ft | 408 kts | 309° |
| 2026-04-26 07:03 | 42.47222 | 20.89881 | 38106 ft | 407 kts | 308° |
| 2026-04-26 07:04 | 42.50845 | 20.84050 | 38105 ft | 407 kts | 308° |
| 2026-04-26 07:04 | 42.54493 | 20.78168 | 38103 ft | 407 kts | 308° |
| 2026-04-26 07:05 | 42.58133 | 20.72287 | 38106 ft | 407 kts | 308° |
| 2026-04-26 07:05 | 42.61767 | 20.66404 | 38106 ft | 406 kts | 308° |
| 2026-04-26 07:06 | 42.65391 | 20.60526 | 38102 ft | 406 kts | 308° |
| 2026-04-26 07:06 | 42.69014 | 20.54638 | 38097 ft | 405 kts | 308° |
| 2026-04-26 07:07 | 42.72622 | 20.48762 | 38090 ft | 405 kts | 308° |
| 2026-04-26 07:07 | 42.76228 | 20.42876 | 38097 ft | 404 kts | 308° |
| 2026-04-26 07:08 | 42.79800 | 20.37037 | 38087 ft | 402 kts | 308° |
| 2026-04-26 07:08 | 42.83525 | 20.31350 | 38081 ft | 404 kts | 314° |
| 2026-04-26 07:09 | 42.87871 | 20.26454 | 38083 ft | 406 kts | 319° |
| 2026-04-26 07:09 | 42.92341 | 20.21724 | 38091 ft | 406 kts | 319° |
| 2026-04-26 07:11 | 43.03551 | 20.09853 | 38103 ft | 408 kts | 319° |
| 2026-04-26 07:11 | 43.08013 | 20.05119 | 38105 ft | 409 kts | 319° |
| 2026-04-26 07:12 | 43.12513 | 20.00334 | 38104 ft | 409 kts | 319° |
| 2026-04-26 07:12 | 43.17012 | 19.95540 | 38108 ft | 410 kts | 319° |
| 2026-04-26 07:13 | 43.21522 | 19.90725 | 38114 ft | 410 kts | 319° |
| 2026-04-26 07:13 | 43.26028 | 19.85904 | 38118 ft | 410 kts | 319° |
| 2026-04-26 07:14 | 43.30531 | 19.81078 | 38119 ft | 411 kts | 319° |
| 2026-04-26 07:14 | 43.35005 | 19.76272 | 38109 ft | 411 kts | 319° |
| 2026-04-26 07:15 | 43.39515 | 19.71419 | 38112 ft | 411 kts | 319° |
| 2026-04-26 07:15 | 43.44025 | 19.66557 | 38116 ft | 412 kts | 319° |
| 2026-04-26 07:16 | 43.48507 | 19.61715 | 38117 ft | 412 kts | 319° |
| 2026-04-26 07:16 | 43.53014 | 19.56837 | 38111 ft | 412 kts | 319° |
| 2026-04-26 07:17 | 43.57519 | 19.51952 | 38109 ft | 412 kts | 319° |
| 2026-04-26 07:17 | 43.62022 | 19.47059 | 38111 ft | 412 kts | 319° |
| 2026-04-26 07:18 | 43.66524 | 19.42160 | 38108 ft | 412 kts | 319° |
| 2026-04-26 07:18 | 43.71024 | 19.37251 | 38110 ft | 412 kts | 319° |
| 2026-04-26 07:19 | 43.75503 | 19.32355 | 38110 ft | 413 kts | 320° |
| 2026-04-26 07:19 | 43.80016 | 19.27412 | 38116 ft | 414 kts | 320° |
| 2026-04-26 07:20 | 43.84539 | 19.22449 | 38119 ft | 415 kts | 320° |
| 2026-04-26 07:20 | 43.89066 | 19.17472 | 38128 ft | 415 kts | 320° |
| 2026-04-26 07:21 | 43.93594 | 19.12482 | 38123 ft | 416 kts | 320° |
| 2026-04-26 07:21 | 43.98128 | 19.07477 | 38120 ft | 416 kts | 320° |
| 2026-04-26 07:22 | 44.02619 | 19.02510 | 38121 ft | 415 kts | 320° |
| 2026-04-26 07:22 | 44.07136 | 18.97502 | 38120 ft | 415 kts | 320° |
| 2026-04-26 07:23 | 44.11655 | 18.92485 | 38120 ft | 415 kts | 320° |
| 2026-04-26 07:23 | 44.16169 | 18.87462 | 38118 ft | 415 kts | 320° |
| 2026-04-26 07:24 | 44.20679 | 18.82433 | 38103 ft | 415 kts | 320° |
| 2026-04-26 07:24 | 44.25187 | 18.77397 | 38101 ft | 415 kts | 320° |
| 2026-04-26 07:25 | 44.29686 | 18.72360 | 38088 ft | 415 kts | 320° |
| 2026-04-26 07:25 | 44.34155 | 18.67347 | 38097 ft | 415 kts | 320° |
| 2026-04-26 07:26 | 44.38651 | 18.62293 | 38097 ft | 415 kts | 320° |
| 2026-04-26 07:26 | 44.43147 | 18.57230 | 38088 ft | 415 kts | 320° |
| 2026-04-26 07:27 | 44.47648 | 18.52149 | 38098 ft | 415 kts | 320° |
| 2026-04-26 07:27 | 44.52150 | 18.47057 | 38102 ft | 416 kts | 320° |
| 2026-04-26 07:28 | 44.56652 | 18.41956 | 38104 ft | 416 kts | 320° |
| 2026-04-26 07:28 | 44.61133 | 18.36866 | 38100 ft | 417 kts | 320° |
| 2026-04-26 07:29 | 44.65644 | 18.31733 | 38093 ft | 417 kts | 320° |
| 2026-04-26 07:29 | 44.70159 | 18.26586 | 38111 ft | 418 kts | 320° |
| 2026-04-26 07:30 | 44.74671 | 18.21430 | 38105 ft | 418 kts | 320° |
| 2026-04-26 07:30 | 44.79191 | 18.16254 | 38102 ft | 417 kts | 320° |
| 2026-04-26 07:31 | 44.83651 | 18.11137 | 38099 ft | 416 kts | 320° |
| 2026-04-26 07:31 | 44.88138 | 18.05977 | 38087 ft | 416 kts | 320° |
| 2026-04-26 07:32 | 44.92631 | 18.00801 | 38092 ft | 416 kts | 320° |
| 2026-04-26 07:32 | 44.97124 | 17.95614 | 38087 ft | 416 kts | 320° |
| 2026-04-26 07:33 | 45.01574 | 17.90465 | 38088 ft | 416 kts | 320° |
| 2026-04-26 07:33 | 45.06047 | 17.85279 | 38084 ft | 415 kts | 320° |
| 2026-04-26 07:34 | 45.10514 | 17.80090 | 38080 ft | 415 kts | 320° |
| 2026-04-26 07:34 | 45.14975 | 17.74896 | 38074 ft | 415 kts | 320° |
| 2026-04-26 07:35 | 45.19431 | 17.69696 | 38077 ft | 415 kts | 320° |
| 2026-04-26 07:35 | 45.23869 | 17.64509 | 38081 ft | 415 kts | 320° |
| 2026-04-26 07:36 | 45.28324 | 17.59288 | 38082 ft | 415 kts | 320° |
| 2026-04-26 07:36 | 45.32783 | 17.54054 | 38080 ft | 416 kts | 320° |
| 2026-04-26 07:37 | 45.37244 | 17.48805 | 38086 ft | 416 kts | 320° |
| 2026-04-26 07:37 | 45.41700 | 17.43551 | 38089 ft | 416 kts | 320° |
| 2026-04-26 07:38 | 45.46166 | 17.38274 | 38082 ft | 417 kts | 320° |
| 2026-04-26 07:38 | 45.50631 | 17.32989 | 38092 ft | 417 kts | 320° |
| 2026-04-26 07:39 | 45.54339 | 17.28591 | 38097 ft | 418 kts | 320° |
| 2026-04-26 07:39 | 45.58808 | 17.23278 | 38100 ft | 418 kts | 320° |
| 2026-04-26 07:40 | 45.63279 | 17.17953 | 38100 ft | 419 kts | 320° |
| 2026-04-26 07:40 | 45.67741 | 17.12627 | 38098 ft | 417 kts | 320° |
| 2026-04-26 07:41 | 45.72196 | 17.07297 | 38103 ft | 417 kts | 319° |
| 2026-04-26 07:41 | 45.76621 | 17.01992 | 38101 ft | 417 kts | 319° |
| 2026-04-26 07:42 | 45.81064 | 16.96654 | 38100 ft | 417 kts | 319° |
| 2026-04-26 07:42 | 45.85507 | 16.91304 | 38103 ft | 417 kts | 319° |
| 2026-04-26 07:43 | 45.89953 | 16.85939 | 38107 ft | 417 kts | 319° |
| 2026-04-26 07:43 | 45.94393 | 16.80570 | 38109 ft | 417 kts | 319° |
| 2026-04-26 07:44 | 45.98833 | 16.75190 | 38112 ft | 417 kts | 319° |
| 2026-04-26 07:44 | 46.03271 | 16.69800 | 38111 ft | 417 kts | 319° |
| 2026-04-26 07:45 | 46.07676 | 16.64438 | 38115 ft | 417 kts | 319° |
| 2026-04-26 07:45 | 46.12107 | 16.59033 | 38114 ft | 417 kts | 319° |
| 2026-04-26 07:46 | 46.16525 | 16.53631 | 38111 ft | 417 kts | 319° |
| 2026-04-26 07:46 | 46.20943 | 16.48218 | 38109 ft | 416 kts | 319° |
| 2026-04-26 07:47 | 46.25367 | 16.42788 | 38108 ft | 416 kts | 319° |
| 2026-04-26 07:47 | 46.29777 | 16.37367 | 38107 ft | 416 kts | 319° |
| 2026-04-26 07:48 | 46.34180 | 16.32009 | 38104 ft | 416 kts | 322° |
| 2026-04-26 07:48 | 46.39216 | 16.27886 | 38096 ft | 418 kts | 337° |
| 2026-04-26 07:49 | 46.44858 | 16.25761 | 38094 ft | 421 kts | 349° |
| 2026-04-26 07:49 | 46.50636 | 16.24402 | 37598 ft | 420 kts | 348° |
| 2026-04-26 07:50 | 46.56483 | 16.23000 | 35736 ft | 433 kts | 349° |
| 2026-04-26 07:50 | 46.59498 | 16.22279 | 34653 ft | 443 kts | 349° |
| 2026-04-26 07:50 | 46.62564 | 16.21549 | 33618 ft | 449 kts | 350° |
| 2026-04-26 07:50 | 46.65654 | 16.20813 | 32675 ft | 450 kts | 350° |
| 2026-04-26 07:51 | 46.68706 | 16.20086 | 31772 ft | 451 kts | 350° |
| 2026-04-26 07:51 | 46.71852 | 16.19335 | 30858 ft | 452 kts | 350° |
| 2026-04-26 07:51 | 46.74915 | 16.18603 | 30179 ft | 449 kts | 350° |
| 2026-04-26 07:51 | 46.77980 | 16.17870 | 29598 ft | 442 kts | 350° |
| 2026-04-26 07:52 | 46.80997 | 16.17149 | 29023 ft | 434 kts | 350° |
| 2026-04-26 07:52 | 46.83962 | 16.16439 | 28464 ft | 427 kts | 350° |
| 2026-04-26 07:52 | 46.86877 | 16.15740 | 27909 ft | 421 kts | 350° |
| 2026-04-26 07:52 | 46.89748 | 16.15051 | 27367 ft | 415 kts | 350° |
| 2026-04-26 07:53 | 46.92534 | 16.14381 | 26830 ft | 409 kts | 350° |
| 2026-04-26 07:53 | 46.95320 | 16.13711 | 26298 ft | 403 kts | 350° |
| 2026-04-26 07:53 | 46.98071 | 16.13048 | 25763 ft | 398 kts | 350° |
| 2026-04-26 07:53 | 47.00787 | 16.12393 | 25258 ft | 393 kts | 349° |
| 2026-04-26 07:54 | 47.03468 | 16.11746 | 24725 ft | 388 kts | 349° |
| 2026-04-26 07:54 | 47.06120 | 16.11104 | 24204 ft | 384 kts | 349° |
| 2026-04-26 07:54 | 47.08744 | 16.10469 | 23648 ft | 381 kts | 349° |
| 2026-04-26 07:54 | 47.11336 | 16.09842 | 23144 ft | 374 kts | 349° |
| 2026-04-26 07:55 | 47.13888 | 16.09223 | 22645 ft | 368 kts | 349° |
| 2026-04-26 07:55 | 47.16395 | 16.08615 | 22150 ft | 363 kts | 349° |
| 2026-04-26 07:55 | 47.18872 | 16.08014 | 21658 ft | 358 kts | 349° |
| 2026-04-26 07:55 | 47.21314 | 16.07421 | 21174 ft | 353 kts | 349° |
| 2026-04-26 07:56 | 47.23731 | 16.06833 | 20690 ft | 350 kts | 349° |
| 2026-04-26 07:56 | 47.26119 | 16.06252 | 20202 ft | 346 kts | 349° |
| 2026-04-26 07:56 | 47.28451 | 16.05684 | 19741 ft | 343 kts | 349° |
| 2026-04-26 07:56 | 47.30795 | 16.05113 | 19270 ft | 340 kts | 349° |
| 2026-04-26 07:57 | 47.33124 | 16.04544 | 18800 ft | 338 kts | 349° |
| 2026-04-26 07:57 | 47.35458 | 16.04160 | 18317 ft | 338 kts | 356° |
| 2026-04-26 07:57 | 47.37799 | 16.04379 | 17903 ft | 335 kts | 6° |
| 2026-04-26 07:57 | 47.40125 | 16.05194 | 17648 ft | 358 kts | 15° |
| 2026-04-26 07:58 | 47.42518 | 16.06385 | 17329 ft | 362 kts | 15° |
| 2026-04-26 07:58 | 47.44885 | 16.07561 | 17026 ft | 356 kts | 15° |
| 2026-04-26 07:58 | 47.47225 | 16.08721 | 16722 ft | 354 kts | 15° |
| 2026-04-26 07:58 | 47.49558 | 16.09876 | 16419 ft | 353 kts | 15° |
| 2026-04-26 07:59 | 47.51885 | 16.11031 | 16122 ft | 352 kts | 15° |
| 2026-04-26 07:59 | 47.54200 | 16.12181 | 15817 ft | 350 kts | 15° |
| 2026-04-26 07:59 | 47.56503 | 16.13328 | 15521 ft | 348 kts | 15° |
| 2026-04-26 07:59 | 47.58770 | 16.14459 | 15232 ft | 347 kts | 14° |
| 2026-04-26 08:00 | 47.61054 | 16.15596 | 14934 ft | 344 kts | 14° |
| 2026-04-26 08:00 | 47.63314 | 16.16724 | 14630 ft | 342 kts | 14° |
| 2026-04-26 08:00 | 47.65562 | 16.17846 | 14349 ft | 341 kts | 14° |
| 2026-04-26 08:00 | 47.67798 | 16.18963 | 14057 ft | 337 kts | 14° |
| 2026-04-26 08:01 | 47.70015 | 16.20075 | 13757 ft | 335 kts | 14° |
| 2026-04-26 08:01 | 47.72220 | 16.21181 | 13470 ft | 333 kts | 14° |
| 2026-04-26 08:01 | 47.74406 | 16.22294 | 13145 ft | 331 kts | 16° |
| 2026-04-26 08:01 | 47.76466 | 16.23838 | 12692 ft | 333 kts | 27° |
| 2026-04-26 08:02 | 47.78292 | 16.25984 | 12172 ft | 338 kts | 38° |
| 2026-04-26 08:02 | 47.79902 | 16.28548 | 11671 ft | 338 kts | 40° |
| 2026-04-26 08:02 | 47.81476 | 16.31083 | 11470 ft | 326 kts | 40° |
| 2026-04-26 08:02 | 47.82989 | 16.33511 | 11350 ft | 313 kts | 39° |
| 2026-04-26 08:03 | 47.84440 | 16.35832 | 11244 ft | 300 kts | 39° |
| 2026-04-26 08:03 | 47.85835 | 16.38061 | 11075 ft | 290 kts | 39° |
| 2026-04-26 08:03 | 47.87198 | 16.40252 | 10716 ft | 289 kts | 41° |
| 2026-04-26 08:03 | 47.88315 | 16.42744 | 10348 ft | 298 kts | 55° |
| 2026-04-26 08:04 | 47.89033 | 16.45696 | 9958 ft | 307 kts | 66° |
| 2026-04-26 08:04 | 47.89533 | 16.48789 | 9532 ft | 312 kts | 77° |
| 2026-04-26 08:04 | 47.89326 | 16.52051 | 9122 ft | 323 kts | 103° |
| 2026-04-26 08:04 | 47.88255 | 16.54988 | 8708 ft | 328 kts | 130° |
| 2026-04-26 08:05 | 47.86483 | 16.57080 | 8352 ft | 320 kts | 158° |
| 2026-04-26 08:05 | 47.84384 | 16.57982 | 7927 ft | 311 kts | 178° |
| 2026-04-26 08:05 | 47.82243 | 16.58296 | 7557 ft | 308 kts | 181° |
| 2026-04-26 08:05 | 47.80116 | 16.58673 | 7208 ft | 308 kts | 177° |
| 2026-04-26 08:06 | 47.78036 | 16.59249 | 7070 ft | 299 kts | 173° |
| 2026-04-26 08:06 | 47.76045 | 16.59969 | 6936 ft | 290 kts | 168° |
| 2026-04-26 08:06 | 47.74279 | 16.61352 | 6824 ft | 286 kts | 139° |
| 2026-04-26 08:06 | 47.73141 | 16.63617 | 6713 ft | 273 kts | 109° |
| 2026-04-26 08:07 | 47.72670 | 16.66279 | 6430 ft | 262 kts | 84° |
| 2026-04-26 08:07 | 47.73026 | 16.68796 | 6131 ft | 240 kts | 51° |
| 2026-04-26 08:07 | 47.74081 | 16.70510 | 5833 ft | 215 kts | 20° |
| 2026-04-26 08:07 | 47.75404 | 16.71467 | 5550 ft | 209 kts | 15° |
| 2026-04-26 08:08 | 47.76759 | 16.72033 | 5288 ft | 198 kts | 358° |
| 2026-04-26 08:08 | 47.78109 | 16.71992 | 4990 ft | 192 kts | 347° |
| 2026-04-26 08:08 | 47.79428 | 16.71595 | 4627 ft | 194 kts | 342° |
| 2026-04-26 08:08 | 47.80720 | 16.71069 | 4354 ft | 191 kts | 341° |
| 2026-04-26 08:09 | 47.81999 | 16.70526 | 4063 ft | 191 kts | 342° |
| 2026-04-26 08:09 | 47.83261 | 16.69992 | 3799 ft | 191 kts | 342° |
| 2026-04-26 08:09 | 47.84534 | 16.69452 | 3600 ft | 190 kts | 342° |
| 2026-04-26 08:09 | 47.85805 | 16.68914 | 3354 ft | 190 kts | 343° |
| 2026-04-26 08:10 | 47.87069 | 16.68377 | 3141 ft | 189 kts | 343° |
| 2026-04-26 08:10 | 47.88330 | 16.67837 | 2991 ft | 183 kts | 343° |
| 2026-04-26 08:10 | 47.89524 | 16.67338 | 3006 ft | 178 kts | 343° |
| 2026-04-26 08:10 | 47.90776 | 16.66813 | 2997 ft | 194 kts | 343° |
| 2026-04-26 08:11 | 47.92096 | 16.66247 | 2982 ft | 198 kts | 343° |
| 2026-04-26 08:11 | 47.93388 | 16.65701 | 2992 ft | 188 kts | 343° |
| 2026-04-26 08:11 | 47.94609 | 16.65181 | 2987 ft | 175 kts | 343° |
| 2026-04-26 08:11 | 47.95734 | 16.64704 | 2997 ft | 165 kts | 343° |
| 2026-04-26 08:12 | 47.96810 | 16.64249 | 2983 ft | 154 kts | 343° |
| 2026-04-26 08:12 | 47.97808 | 16.63822 | 2965 ft | 147 kts | 343° |
| 2026-04-26 08:12 | 47.98771 | 16.63414 | 2785 ft | 149 kts | 343° |
| 2026-04-26 08:12 | 47.99773 | 16.62989 | 2527 ft | 149 kts | 343° |
| 2026-04-26 08:13 | 48.00760 | 16.62572 | 2299 ft | 144 kts | 343° |
| 2026-04-26 08:13 | 48.01711 | 16.62170 | 2104 ft | 141 kts | 343° |
| 2026-04-26 08:13 | 48.02638 | 16.61775 | 1907 ft | 135 kts | 342° |
| 2026-04-26 08:13 | 48.03522 | 16.61398 | 1720 ft | 128 kts | 342° |
| 2026-04-26 08:14 | 48.04346 | 16.61048 | 1548 ft | 117 kts | 343° |
| 2026-04-26 08:14 | 48.05099 | 16.60731 | 1385 ft | 108 kts | 342° |
| 2026-04-26 08:14 | 48.05827 | 16.60421 | 1246 ft | 110 kts | 342° |
| 2026-04-26 08:14 | 48.06582 | 16.60104 | 1090 ft | 116 kts | 343° |
| 2026-04-26 08:15 | 48.07373 | 16.59766 | 936 ft | 119 kts | 344° |
| 2026-04-26 08:15 | 48.08148 | 16.59438 | 755 ft | 112 kts | 345° |
| 2026-04-26 08:15 | 48.08882 | 16.59129 | 645 ft | 110 kts | 345° |
| 2026-04-26 08:15 | 48.09608 | 16.58819 | 610 ft | 92 kts | 344° |
| 2026-04-26 08:16 | 48.10028 | 16.58642 | 621 ft | 38 kts | 344° |
| 2026-04-26 08:16 | 48.10259 | 16.58543 | 615 ft | 31 kts | 344° |
| 2026-04-26 08:16 | 48.10411 | 16.58391 | 609 ft | 22 kts | 304° |
| 2026-04-26 08:16 | 48.10474 | 16.58224 | 617 ft | 18 kts | 299° |
| 2026-04-26 08:17 | 48.10573 | 16.58131 | 613 ft | 15 kts | 344° |
| 2026-04-26 08:17 | 48.10619 | 16.58111 | 611 ft | 6 kts | 345° |
| 2026-04-26 08:17 | 48.10657 | 16.58096 | 618 ft | 4 kts | 344° |
| 2026-04-26 08:17 | 48.10693 | 16.58081 | 614 ft | 6 kts | 345° |
| 2026-04-26 08:18 | 48.10742 | 16.58061 | 619 ft | 8 kts | 345° |
| 2026-04-26 08:18 | 48.10803 | 16.58036 | 617 ft | 10 kts | 344° |
| 2026-04-26 08:18 | 48.10874 | 16.58006 | 618 ft | 11 kts | 344° |
| 2026-04-26 08:18 | 48.10952 | 16.57973 | 611 ft | 12 kts | 343° |
| 2026-04-26 08:19 | 48.11036 | 16.57935 | 615 ft | 13 kts | 343° |
| 2026-04-26 08:19 | 48.11110 | 16.57859 | 612 ft | 14 kts | 302° |
| 2026-04-26 08:19 | 48.11155 | 16.57725 | 619 ft | 15 kts | 296° |
| 2026-04-26 08:19 | 48.11208 | 16.57565 | 614 ft | 20 kts | 296° |
| 2026-04-26 08:20 | 48.11273 | 16.57360 | 613 ft | 23 kts | 295° |
| 2026-04-26 08:20 | 48.11344 | 16.57138 | 617 ft | 24 kts | 298° |
| 2026-04-26 08:20 | 48.11418 | 16.56912 | 613 ft | 24 kts | 295° |
| 2026-04-26 08:20 | 48.11492 | 16.56681 | 614 ft | 25 kts | 296° |
| 2026-04-26 08:21 | 48.11570 | 16.56449 | 617 ft | 25 kts | 296° |
| 2026-04-26 08:21 | 48.11647 | 16.56213 | 616 ft | 25 kts | 296° |
| 2026-04-26 08:21 | 48.11724 | 16.55974 | 615 ft | 26 kts | 295° |
| 2026-04-26 08:21 | 48.11786 | 16.55782 | 609 ft | 14 kts | 296° |
| 2026-04-26 08:22 | 48.11820 | 16.55678 | 618 ft | 5 kts | 295° |
| 2026-04-26 08:22 | 48.11847 | 16.55663 | 612 ft | 5 kts | 7° |
| 2026-04-26 08:22 | 48.11882 | 16.55685 | 613 ft | 4 kts | 27° |
| 2026-04-26 08:22 | 48.11901 | 16.55699 | 615 ft | 1 kts | 25° |